Time;durP1;ratioP1;P1;durP2;ratioP2;P2;SDS_P1;SDS_P2;PMS_P1;PMS_P2;Temp;Humidity;BMP_temperature;BMP_pressure;BME280_temperature;BME280_humidity;BME280_pressure;Samples;Min_cycle;Max_cycle;Signal;HPM_P1;HPM_P2
2022/08/18 00:00:26;;;;;;;6.18;3.80;;;20.30;60.10;;;;;;5008388;28;20124;-73
2022/08/18 00:02:51;;;;;;;4.53;4.13;;;20.20;60.10;;;;;;5023784;28;20059;-74
2022/08/18 00:05:17;;;;;;;3.97;3.67;;;20.20;60.20;;;;;;5021448;28;20052;-71
2022/08/18 00:07:42;;;;;;;4.85;3.75;;;20.10;60.30;;;;;;5022130;28;20095;-72
2022/08/18 00:10:08;;;;;;;6.05;3.92;;;20.10;60.40;;;;;;5016402;28;20045;-72
2022/08/18 00:12:36;;;;;;;5.63;3.90;;;20.00;60.50;;;;;;5021506;28;20043;-72
2022/08/18 00:15:04;;;;;;;4.22;3.83;;;20.00;61.00;;;;;;4996982;28;20091;-71
2022/08/18 00:17:30;;;;;;;5.45;4.05;;;20.00;61.20;;;;;;5021353;28;20564;-72
2022/08/18 00:19:56;;;;;;;7.65;4.88;;;19.90;61.20;;;;;;5017983;28;20037;-72
2022/08/18 00:22:21;;;;;;;3.97;3.60;;;19.90;61.30;;;;;;5016798;28;20095;-73
2022/08/18 00:24:52;;;;;;;4.38;3.97;;;19.90;62.30;;;;;;5020420;28;20057;-73
2022/08/18 00:27:24;;;;;;;4.45;4.05;;;19.90;61.40;;;;;;5016373;28;20045;-71
2022/08/18 00:29:51;;;;;;;4.63;4.22;;;19.90;61.60;;;;;;5018036;28;20044;-72
2022/08/18 00:32:25;;;;;;;5.60;3.88;;;19.90;61.60;;;;;;5020374;28;20029;-71
2022/08/18 00:34:51;;;;;;;4.65;3.90;;;19.90;61.60;;;;;;5019201;28;20129;-71
2022/08/18 00:37:17;;;;;;;6.15;3.83;;;19.90;61.70;;;;;;5019295;28;20411;-73
2022/08/18 00:39:42;;;;;;;4.18;3.78;;;19.90;61.70;;;;;;5022099;28;20037;-72
2022/08/18 00:42:21;;;;;;;4.68;4.28;;;19.90;61.70;;;;;;5021126;28;20505;-72
2022/08/18 00:44:46;;;;;;;4.78;4.32;;;19.90;62.00;;;;;;5018301;28;20504;-73
2022/08/18 00:47:12;;;;;;;5.50;4.07;;;19.90;61.90;;;;;;5019278;28;20042;-72
2022/08/18 00:49:38;;;;;;;4.22;3.80;;;19.90;62.10;;;;;;5019992;28;20055;-73
2022/08/18 00:52:04;;;;;;;6.90;3.75;;;19.90;62.30;;;;;;5020337;28;20506;-72
2022/08/18 00:54:30;;;;;;;5.03;4.18;;;19.80;62.30;;;;;;5017479;28;20053;-72
2022/08/18 00:56:59;;;;;;;8.55;4.75;;;19.80;62.40;;;;;;5021238;28;20033;-72
2022/08/18 00:59:48;;;;;;;4.35;3.95;;;19.80;62.80;;;;;;5018736;28;20049;-72
2022/08/18 01:02:19;;;;;;;5.93;3.60;;;19.80;63.30;;;;;;5015704;28;20045;-72
2022/08/18 01:04:49;;;;;;;5.70;4.28;;;19.90;62.90;;;;;;5019896;28;20048;-73
2022/08/18 01:07:20;;;;;;;4.85;4.05;;;19.90;62.90;;;;;;5018445;28;20034;-73
2022/08/18 01:09:47;;;;;;;7.80;4.23;;;19.90;62.90;;;;;;5018921;28;20025;-73
2022/08/18 01:12:12;;;;;;;6.65;4.38;;;19.90;62.80;;;;;;5016870;28;20045;-73
2022/08/18 01:14:38;;;;;;;5.47;4.15;;;20.00;62.80;;;;;;5019453;28;20041;-73
2022/08/18 01:22:48;;;;;;;4.28;3.88;;;20.10;62.70;;;;;;5016050;28;20033;-74
2022/08/18 01:28:02;;;;;;;6.38;3.90;;;20.10;62.40;;;;;;5009532;28;20047;-72
2022/08/18 01:30:28;;;;;;;6.43;3.97;;;20.10;62.30;;;;;;5020554;28;20512;-72
2022/08/18 01:32:53;;;;;;;6.30;4.55;;;20.10;62.30;;;;;;5018074;28;20033;-73
2022/08/18 01:35:21;;;;;;;4.93;4.43;;;20.10;62.40;;;;;;5019018;28;20033;-72
2022/08/18 01:37:47;;;;;;;7.13;4.20;;;20.10;62.50;;;;;;5002568;28;20080;-72
2022/08/18 01:40:14;;;;;;;5.32;4.30;;;20.10;62.60;;;;;;5019011;28;20053;-72
2022/08/18 01:42:42;;;;;;;6.97;3.92;;;20.10;62.70;;;;;;5017386;28;20033;-72
2022/08/18 01:45:08;;;;;;;4.30;3.90;;;20.10;62.70;;;;;;5017245;28;20037;-72
2022/08/18 01:47:34;;;;;;;4.95;4.05;;;20.10;62.70;;;;;;5002813;28;20029;-72
2022/08/18 01:50:00;;;;;;;6.95;4.03;;;20.10;62.70;;;;;;5017371;28;20037;-72
2022/08/18 01:52:28;;;;;;;11.10;4.70;;;20.10;62.80;;;;;;5019308;28;20041;-72
2022/08/18 01:54:56;;;;;;;4.40;4.00;;;20.10;62.90;;;;;;5021380;28;20073;-73
2022/08/18 01:57:22;;;;;;;10.52;4.63;;;20.20;63.00;;;;;;5002011;28;20438;-72
2022/08/18 01:59:47;;;;;;;4.90;4.40;;;20.20;63.00;;;;;;5024689;28;20131;-73
2022/08/18 02:02:15;;;;;;;7.40;4.35;;;20.20;63.00;;;;;;5024725;28;20064;-73
2022/08/18 02:04:41;;;;;;;6.88;4.60;;;20.30;63.10;;;;;;5021711;28;20086;-73
2022/08/18 02:07:08;;;;;;;5.05;4.40;;;20.30;63.00;;;;;;5023175;28;20029;-73
2022/08/18 02:09:36;;;;;;;10.95;4.50;;;20.40;63.00;;;;;;5023078;28;20029;-72
2022/08/18 02:12:02;;;;;;;6.60;4.60;;;20.40;62.90;;;;;;5022461;28;20064;-72
2022/08/18 02:14:28;;;;;;;7.70;4.63;;;20.50;62.90;;;;;;5022222;28;20491;-73
2022/08/18 02:16:57;;;;;;;7.35;4.60;;;20.50;62.70;;;;;;5022128;28;20057;-73
2022/08/18 02:19:22;;;;;;;6.78;5.00;;;20.50;62.80;;;;;;5022739;28;20041;-72
2022/08/18 02:21:50;;;;;;;5.30;4.80;;;20.60;62.70;;;;;;5022051;28;20033;-72
2022/08/18 02:24:16;;;;;;;5.30;4.80;;;20.60;62.60;;;;;;5020638;28;20029;-73
2022/08/18 02:26:43;;;;;;;4.80;4.30;;;20.60;62.60;;;;;;5023742;28;20048;-73
2022/08/18 02:29:08;;;;;;;9.10;5.13;;;20.60;62.60;;;;;;5005404;28;20457;-73
2022/08/18 02:31:34;;;;;;;9.27;4.38;;;20.70;62.50;;;;;;5026654;28;20025;-73
2022/08/18 02:33:59;;;;;;;5.22;4.25;;;20.70;62.50;;;;;;5024181;28;20032;-73
2022/08/18 02:36:25;;;;;;;5.85;4.40;;;20.70;62.40;;;;;;5025086;28;20521;-72
2022/08/18 02:38:50;;;;;;;5.25;4.75;;;20.70;62.40;;;;;;5022504;28;20490;-72
2022/08/18 02:41:16;;;;;;;9.50;4.93;;;20.70;62.40;;;;;;5025333;28;20041;-71
2022/08/18 02:43:42;;;;;;;5.93;4.40;;;20.70;62.40;;;;;;5023470;28;20047;-74
2022/08/18 02:46:08;;;;;;;5.53;3.83;;;20.80;62.30;;;;;;5024945;28;20049;-72
2022/08/18 02:48:33;;;;;;;8.05;4.53;;;20.80;62.10;;;;;;5022274;28;20033;-73
2022/08/18 02:51:11;;;;;;;5.05;4.15;;;20.80;62.10;;;;;;5021208;28;20048;-73
2022/08/18 02:53:37;;;;;;;7.40;3.97;;;20.80;62.20;;;;;;5024628;28;20033;-73
2022/08/18 02:56:20;;;;;;;5.18;4.32;;;20.80;62.00;;;;;;5021292;28;20045;-73
2022/08/18 02:58:46;;;;;;;5.53;4.13;;;20.80;61.80;;;;;;5022750;28;20083;-72
2022/08/18 03:01:11;;;;;;;5.63;3.83;;;20.80;61.70;;;;;;5020533;28;20041;-72
2022/08/18 03:03:37;;;;;;;6.75;4.40;;;20.80;61.60;;;;;;5023247;28;20044;-74
2022/08/18 03:06:03;;;;;;;4.78;4.28;;;20.80;61.50;;;;;;5016963;28;20064;-72
2022/08/18 03:08:29;;;;;;;4.65;4.25;;;20.80;61.50;;;;;;5021508;28;20042;-73
2022/08/18 03:10:54;;;;;;;4.82;4.30;;;20.80;61.30;;;;;;5024452;28;20437;-73
2022/08/18 03:13:20;;;;;;;4.63;4.22;;;20.80;61.30;;;;;;5022383;28;20503;-72
2022/08/18 03:15:46;;;;;;;3.90;3.60;;;20.80;61.30;;;;;;5022913;28;20092;-71
2022/08/18 03:18:12;;;;;;;5.35;4.40;;;20.80;61.40;;;;;;5021902;28;20549;-72
2022/08/18 03:20:38;;;;;;;4.38;3.97;;;20.90;61.20;;;;;;5021924;28;20125;-72
2022/08/18 03:23:03;;;;;;;4.65;4.25;;;20.90;61.10;;;;;;5022894;28;20121;-71
2022/08/18 03:25:29;;;;;;;4.95;4.45;;;20.90;61.00;;;;;;5022864;28;20034;-73
2022/08/18 03:27:55;;;;;;;9.20;4.38;;;20.80;60.90;;;;;;4981104;28;20061;-71
2022/08/18 03:30:20;;;;;;;4.82;3.88;;;20.90;61.00;;;;;;5001530;28;20057;-72
2022/08/18 03:32:46;;;;;;;4.40;3.80;;;20.80;61.00;;;;;;5002460;28;20483;-72
2022/08/18 03:35:13;;;;;;;4.90;4.32;;;20.80;61.10;;;;;;5002646;28;20074;-72
2022/08/18 03:37:39;;;;;;;4.43;3.97;;;20.80;61.30;;;;;;4996267;28;20117;-71
2022/08/18 03:40:05;;;;;;;5.13;4.10;;;20.80;61.30;;;;;;5003067;28;20120;-73
2022/08/18 03:42:30;;;;;;;5.18;3.78;;;20.80;61.40;;;;;;5000212;28;20041;-73
2022/08/18 03:44:56;;;;;;;3.97;3.58;;;20.80;61.40;;;;;;5001342;28;20037;-71
2022/08/18 03:47:21;;;;;;;6.13;3.88;;;20.80;61.30;;;;;;5001563;28;20033;-72
2022/08/18 03:49:47;;;;;;;5.40;3.97;;;20.80;61.10;;;;;;5001628;28;20041;-72
2022/08/18 03:52:13;;;;;;;6.00;4.03;;;20.80;61.00;;;;;;4999289;28;20136;-72
2022/08/18 03:54:39;;;;;;;4.78;4.00;;;20.80;61.20;;;;;;5002167;28;20077;-72
2022/08/18 03:57:07;;;;;;;7.88;4.65;;;20.80;61.60;;;;;;5000516;28;20431;-73
2022/08/18 03:59:33;;;;;;;8.85;4.82;;;20.80;61.90;;;;;;5000887;28;20029;-72
2022/08/18 04:02:00;;;;;;;7.75;4.30;;;20.80;62.10;;;;;;5003699;28;20495;-72
2022/08/18 04:04:26;;;;;;;5.95;4.50;;;20.70;62.60;;;;;;4998612;28;20051;-72
2022/08/18 04:07:03;;;;;;;8.35;4.72;;;20.70;62.80;;;;;;5003033;28;20088;-73
2022/08/18 04:09:29;;;;;;;6.15;4.45;;;20.70;63.20;;;;;;4968819;28;20065;-73
2022/08/18 04:11:55;;;;;;;5.38;4.88;;;20.70;63.60;;;;;;4992580;28;20093;-72
2022/08/18 04:14:29;;;;;;;4.45;4.05;;;20.70;64.30;;;;;;5002658;28;20042;-73
2022/08/18 04:16:55;;;;;;;5.53;4.97;;;20.60;64.80;;;;;;4996821;28;20601;-72
2022/08/18 04:19:21;;;;;;;5.22;4.68;;;20.60;64.90;;;;;;4984147;28;20081;-72
2022/08/18 04:21:49;;;;;;;5.70;5.10;;;20.60;65.10;;;;;;5000778;28;20534;-71
2022/08/18 04:24:14;;;;;;;4.80;4.40;;;20.50;65.40;;;;;;5002256;28;20501;-73
2022/08/18 04:26:42;;;;;;;5.55;5.00;;;20.50;65.80;;;;;;4998542;28;20064;-71
2022/08/18 04:29:08;;;;;;;7.60;5.50;;;20.40;65.90;;;;;;5000956;28;20072;-73
2022/08/18 04:31:34;;;;;;;5.57;4.63;;;20.40;66.30;;;;;;5000842;28;20058;-70
2022/08/18 04:34:00;;;;;;;7.45;4.32;;;20.30;66.60;;;;;;4981968;28;20729;-71
2022/08/18 04:36:25;;;;;;;5.10;4.57;;;20.20;66.80;;;;;;4998716;28;20069;-71
2022/08/18 04:38:51;;;;;;;5.63;4.57;;;20.20;66.80;;;;;;4998648;28;20045;-71
2022/08/18 04:41:17;;;;;;;5.20;4.70;;;20.20;67.10;;;;;;4997898;28;20049;-71
2022/08/18 04:43:42;;;;;;;6.35;4.70;;;20.20;67.20;;;;;;4980172;28;20048;-72
2022/08/18 04:46:08;;;;;;;5.53;4.03;;;20.20;67.50;;;;;;5000851;28;20141;-71
2022/08/18 04:48:35;;;;;;;5.75;4.60;;;20.10;67.30;;;;;;5001103;28;20041;-73
2022/08/18 04:51:05;;;;;;;5.65;4.60;;;20.10;67.40;;;;;;4999166;28;20120;-71
2022/08/18 04:53:46;;;;;;;6.85;4.80;;;20.10;67.50;;;;;;5001278;28;20041;-72
2022/08/18 04:56:26;;;;;;;6.32;4.88;;;20.10;67.50;;;;;;4999155;28;20133;-71
2022/08/18 04:58:53;;;;;;;7.13;4.85;;;20.10;67.60;;;;;;4981773;28;20590;-71
2022/08/18 05:01:20;;;;;;;4.90;4.45;;;20.10;67.90;;;;;;4996958;28;20127;-71
2022/08/18 05:03:48;;;;;;;6.45;4.95;;;20.00;68.00;;;;;;4997872;28;20090;-72
2022/08/18 05:06:13;;;;;;;10.27;5.97;;;20.00;67.80;;;;;;4998485;28;20046;-72
2022/08/18 05:08:39;;;;;;;7.82;4.88;;;20.00;68.00;;;;;;4981911;28;20470;-71
2022/08/18 05:11:05;;;;;;;6.30;4.93;;;20.10;68.40;;;;;;5002396;28;20120;-70
2022/08/18 05:13:30;;;;;;;6.90;4.20;;;20.00;68.80;;;;;;5000717;28;20037;-72
2022/08/18 05:15:57;;;;;;;5.38;4.45;;;20.00;68.60;;;;;;5002638;28;20034;-70
2022/08/18 05:18:23;;;;;;;4.78;4.38;;;20.00;68.50;;;;;;4983208;28;20104;-72
2022/08/18 05:20:50;;;;;;;8.05;5.13;;;20.00;68.50;;;;;;4998477;28;20026;-70
2022/08/18 05:23:16;;;;;;;7.82;4.88;;;20.00;68.70;;;;;;5008842;28;20038;-71
2022/08/18 05:25:42;;;;;;;7.70;5.40;;;20.00;69.00;;;;;;4997876;28;20860;-71
2022/08/18 05:28:08;;;;;;;7.35;5.80;;;20.00;69.30;;;;;;5013291;28;20502;-70
2022/08/18 05:30:35;;;;;;;5.57;4.60;;;20.00;69.60;;;;;;5021134;28;20037;-71
2022/08/18 05:33:02;;;;;;;7.22;5.40;;;20.00;69.80;;;;;;5017137;28;20095;-71
2022/08/18 05:35:35;;;;;;;7.45;4.75;;;20.00;70.20;;;;;;5021142;28;20033;-71
2022/08/18 05:38:15;;;;;;;6.93;4.80;;;20.00;70.40;;;;;;5019753;28;20041;-69
2022/08/18 05:40:41;;;;;;;8.77;5.20;;;20.00;71.00;;;;;;5019770;28;20448;-71
2022/08/18 05:43:07;;;;;;;4.38;3.97;;;20.00;70.70;;;;;;5022134;28;20110;-71
2022/08/18 05:45:33;;;;;;;5.82;5.10;;;20.00;70.50;;;;;;5022534;28;20039;-71
2022/08/18 05:47:59;;;;;;;5.07;4.65;;;20.00;70.30;;;;;;5021465;28;20111;-70
2022/08/18 05:50:24;;;;;;;8.95;4.70;;;20.00;70.80;;;;;;5021081;28;20041;-72
2022/08/18 05:52:55;;;;;;;7.30;4.75;;;19.90;70.80;;;;;;5003452;28;20179;-73
2022/08/18 05:58:23;;;;;;;9.63;5.20;;;19.90;70.60;;;;;;5019731;28;20114;-72
2022/08/18 06:00:52;;;;;;;7.15;4.13;;;19.90;70.40;;;;;;5021594;28;20038;-71
2022/08/18 06:03:31;;;;;;;6.60;5.70;;;20.00;70.50;;;;;;5021783;28;20036;-71
2022/08/18 06:06:00;;;;;;;6.13;4.20;;;20.00;71.10;;;;;;5019873;28;20029;-71
2022/08/18 06:08:35;;;;;;;5.32;4.57;;;20.00;70.80;;;;;;5004440;28;20151;-71
2022/08/18 06:11:01;;;;;;;4.70;4.22;;;20.00;70.60;;;;;;5014219;28;20037;-70
2022/08/18 06:13:26;;;;;;;10.88;5.32;;;20.00;70.10;;;;;;5021970;28;20037;-72
2022/08/18 06:15:58;;;;;;;5.40;4.90;;;20.10;70.00;;;;;;5018865;28;20037;-71
2022/08/18 06:18:27;;;;;;;7.65;5.60;;;20.10;70.00;;;;;;5022729;28;20029;-73
2022/08/18 06:21:11;;;;;;;5.00;4.43;;;20.10;69.90;;;;;;5019819;28;20034;-70
2022/08/18 06:24:10;;;;;;;8.30;5.35;;;20.10;70.10;;;;;;5015867;28;20041;-71
2022/08/18 06:26:42;;;;;;;5.55;5.03;;;20.10;69.80;;;;;;5020697;28;20049;-72
2022/08/18 06:29:39;;;;;;;5.68;4.88;;;20.10;69.60;;;;;;5001050;28;20041;-70
2022/08/18 06:32:13;;;;;;;14.85;6.13;;;20.20;70.00;;;;;;5019534;28;20056;-72
2022/08/18 06:34:56;;;;;;;5.45;4.95;;;20.20;69.90;;;;;;5019457;28;20064;-70
2022/08/18 06:37:25;;;;;;;9.63;6.93;;;20.20;69.90;;;;;;5018735;28;20048;-70
2022/08/18 06:39:51;;;;;;;6.55;4.95;;;20.20;70.20;;;;;;5020198;28;20037;-71
2022/08/18 06:42:24;;;;;;;5.38;4.88;;;20.20;70.40;;;;;;5019570;28;20056;-70
2022/08/18 06:44:52;;;;;;;8.43;6.18;;;20.20;70.50;;;;;;5018894;28;20121;-71
2022/08/18 06:47:32;;;;;;;8.48;6.93;;;20.20;70.80;;;;;;4971785;28;20165;-70
2022/08/18 06:50:14;;;;;;;5.90;5.35;;;20.20;71.70;;;;;;4988422;28;20045;-72
2022/08/18 06:52:53;;;;;;;6.18;5.30;;;20.10;71.60;;;;;;5004967;28;20046;-72
2022/08/18 06:55:36;;;;;;;5.80;4.35;;;20.20;71.30;;;;;;4985856;28;20045;-72
2022/08/18 06:58:10;;;;;;;11.15;6.93;;;20.20;70.90;;;;;;5017553;28;20037;-71
2022/08/18 07:00:35;;;;;;;9.10;7.53;;;20.20;71.00;;;;;;4984417;28;20037;-70
2022/08/18 07:03:15;;;;;;;11.00;7.10;;;20.20;71.30;;;;;;5010818;28;20039;-72
2022/08/18 07:06:22;;;;;;;7.90;6.70;;;20.20;72.20;;;;;;4999662;28;20044;-70
2022/08/18 07:08:52;;;;;;;8.55;7.65;;;20.20;72.50;;;;;;4985473;28;20052;-70
2022/08/18 07:11:28;;;;;;;7.50;6.05;;;20.20;72.10;;;;;;5027618;23;20045;-70
2022/08/18 07:13:56;;;;;;;6.53;5.10;;;20.20;72.10;;;;;;5001172;28;20073;-72
2022/08/18 07:16:27;;;;;;;8.32;7.43;;;20.20;71.90;;;;;;4987929;28;20045;-72
2022/08/18 07:18:53;;;;;;;15.40;8.38;;;20.20;72.00;;;;;;4996895;28;20753;-70
2022/08/18 07:21:30;;;;;;;10.40;8.30;;;20.20;72.00;;;;;;5019391;28;20036;-71
2022/08/18 07:24:08;;;;;;;9.68;8.57;;;20.20;73.00;;;;;;5001777;28;20037;-73
2022/08/18 07:27:00;;;;;;;9.48;8.48;;;20.30;72.70;;;;;;5019407;28;20092;-72
2022/08/18 07:29:25;;;;;;;17.02;9.10;;;20.20;73.50;;;;;;5021146;28;20048;-70
2022/08/18 07:31:52;;;;;;;8.45;7.10;;;20.20;73.10;;;;;;5008542;28;20037;-71
2022/08/18 07:34:36;;;;;;;9.88;7.80;;;20.20;73.00;;;;;;4990996;28;20405;-71
2022/08/18 07:37:21;;;;;;;9.18;6.53;;;20.30;73.10;;;;;;4988494;28;20036;-70
2022/08/18 07:40:01;;;;;;;7.60;6.22;;;20.30;72.80;;;;;;5024817;28;20553;-72
2022/08/18 07:42:34;;;;;;;10.75;8.65;;;20.30;72.40;;;;;;5020377;28;20041;-72
2022/08/18 07:45:04;;;;;;;13.98;8.68;;;20.30;72.40;;;;;;5021285;28;20529;-70
2022/08/18 07:47:52;;;;;;;20.50;9.70;;;20.30;72.50;;;;;;5022104;28;20116;-72
2022/08/18 07:50:18;;;;;;;15.50;9.27;;;20.30;73.20;;;;;;5004139;28;20033;-70
2022/08/18 07:52:49;;;;;;;12.23;8.38;;;20.40;72.70;;;;;;5019517;28;20110;-72
2022/08/18 07:55:34;;;;;;;12.15;9.35;;;20.40;72.70;;;;;;5020281;28;20033;-70
2022/08/18 07:58:20;;;;;;;10.25;8.65;;;20.40;72.90;;;;;;5007342;28;20039;-71
2022/08/18 08:00:57;;;;;;;11.20;8.73;;;20.40;72.80;;;;;;5038165;28;20087;-70
2022/08/18 08:03:47;;;;;;;11.43;8.75;;;20.40;72.80;;;;;;5017768;28;20107;-70
2022/08/18 08:06:50;;;;;;;8.30;7.45;;;20.40;73.20;;;;;;5018724;28;20633;-72
2022/08/18 08:09:22;;;;;;;8.40;7.03;;;20.40;72.50;;;;;;4996748;28;20121;-71
2022/08/18 08:11:54;;;;;;;7.55;6.85;;;20.40;72.10;;;;;;5016856;28;20050;-71
2022/08/18 08:14:29;;;;;;;8.05;7.22;;;20.50;72.10;;;;;;5015137;28;20510;-71
2022/08/18 08:17:08;;;;;;;10.88;7.65;;;20.50;72.00;;;;;;5018392;28;20065;-71
2022/08/18 08:19:49;;;;;;;10.00;6.60;;;20.50;71.90;;;;;;5014826;28;20126;-70
2022/08/18 08:22:51;;;;;;;8.48;6.93;;;20.50;71.50;;;;;;5018002;28;20104;-72
2022/08/18 08:25:25;;;;;;;9.85;7.25;;;20.60;71.40;;;;;;5014253;28;20113;-70
2022/08/18 08:28:09;;;;;;;8.30;7.03;;;20.60;71.00;;;;;;5013873;28;20042;-72
2022/08/18 08:30:54;;;;;;;8.68;7.78;;;20.70;71.00;;;;;;5016622;28;20037;-72
2022/08/18 08:33:29;;;;;;;11.00;9.65;;;20.80;70.90;;;;;;5002829;28;20037;-71
2022/08/18 08:36:34;;;;;;;8.60;7.53;;;20.80;71.10;;;;;;4999221;28;20050;-71
2022/08/18 08:39:15;;;;;;;9.68;7.88;;;20.90;71.30;;;;;;5012058;28;20037;-72
2022/08/18 08:41:50;;;;;;;11.48;10.02;;;20.90;71.20;;;;;;4996766;28;20040;-71
2022/08/18 08:44:31;;;;;;;10.52;8.90;;;21.00;71.40;;;;;;5013552;28;20038;-72
2022/08/18 08:47:01;;;;;;;11.48;8.60;;;21.00;71.10;;;;;;4996592;28;20041;-70
2022/08/18 08:49:53;;;;;;;14.05;8.68;;;21.00;70.90;;;;;;5004163;28;20120;-71
2022/08/18 08:52:22;;;;;;;10.52;8.30;;;21.10;71.10;;;;;;4998641;28;20060;-72
2022/08/18 08:54:58;;;;;;;10.82;8.80;;;21.10;70.80;;;;;;5017303;28;20052;-70
2022/08/18 08:57:26;;;;;;;9.73;8.32;;;21.20;70.90;;;;;;5015498;28;20026;-71
2022/08/18 08:59:52;;;;;;;12.23;9.82;;;21.20;70.70;;;;;;4984523;28;20033;-70
2022/08/18 09:02:30;;;;;;;8.85;7.95;;;21.30;70.70;;;;;;5015965;28;20999;-71
2022/08/18 09:05:24;;;;;;;9.32;8.35;;;21.30;70.80;;;;;;4996841;28;20532;-71
2022/08/18 09:07:55;;;;;;;11.38;9.40;;;21.30;70.80;;;;;;4983624;28;20041;-72
2022/08/18 09:10:48;;;;;;;9.57;8.63;;;21.30;70.50;;;;;;5024409;28;20094;-70
2022/08/18 09:13:44;;;;;;;9.60;8.45;;;21.30;70.70;;;;;;5033906;28;20130;-70
2022/08/18 09:16:24;;;;;;;14.35;11.75;;;21.40;70.80;;;;;;5019881;28;20053;-72
2022/08/18 09:18:55;;;;;;;15.40;11.25;;;21.40;70.90;;;;;;5037253;28;20116;-71
2022/08/18 09:21:45;;;;;;;12.68;10.82;;;21.40;70.80;;;;;;5020341;28;20115;-72
2022/08/18 09:24:31;;;;;;;19.40;11.95;;;21.40;71.00;;;;;;5004108;28;20037;-71
2022/08/18 09:27:03;;;;;;;13.65;10.00;;;21.40;71.50;;;;;;5010732;28;20567;-73
2022/08/18 09:29:38;;;;;;;12.63;9.13;;;21.40;71.40;;;;;;5035143;28;20415;-72
2022/08/18 09:32:18;;;;;;;14.07;11.15;;;21.50;71.40;;;;;;5037819;28;20029;-72
2022/08/18 09:35:08;;;;;;;11.97;10.73;;;21.50;71.50;;;;;;5034759;28;20040;-71
2022/08/18 09:41:30;;;;;;;10.40;9.30;;;21.50;71.50;;;;;;5016136;28;20265;-71
2022/08/18 09:43:51;;;;;;;;;;;21.60;71.20;;;;;;5006453;28;20090;-71
2022/08/18 09:46:37;;;;;;;12.98;9.77;;;21.60;71.00;;;;;;5017225;28;19913;-73
2022/08/18 09:49:21;;;;;;;11.52;9.52;;;21.60;70.70;;;;;;5035523;28;20029;-71
2022/08/18 09:51:46;;;;;;;9.55;8.63;;;21.60;71.20;;;;;;5013324;28;20031;-70
2022/08/18 09:54:17;;;;;;;11.98;8.43;;;21.60;70.60;;;;;;5002453;28;20033;-70
2022/08/18 09:56:48;;;;;;;11.65;9.18;;;21.70;71.20;;;;;;4997266;28;20517;-68
2022/08/18 09:59:32;;;;;;;15.48;10.32;;;21.70;70.30;;;;;;5019686;28;20041;-71
2022/08/18 10:02:09;;;;;;;9.38;8.25;;;21.80;70.50;;;;;;5016715;28;20036;-71
2022/08/18 10:04:47;;;;;;;11.88;9.07;;;21.80;70.20;;;;;;4992485;28;20037;-72
2022/08/18 10:07:14;;;;;;;10.73;9.07;;;21.90;70.10;;;;;;5022361;28;20044;-71
2022/08/18 10:10:14;;;;;;;12.60;10.82;;;22.00;70.00;;;;;;5018338;28;20536;-71
2022/08/18 10:12:54;;;;;;;12.32;10.00;;;22.00;70.30;;;;;;5009398;28;20041;-72
2022/08/18 10:15:30;;;;;;;14.85;10.70;;;22.10;69.90;;;;;;5004226;28;20029;-72
2022/08/18 10:18:11;;;;;;;11.00;9.85;;;22.20;69.90;;;;;;5017484;28;20037;-71
2022/08/18 10:21:02;;;;;;;13.40;10.27;;;22.30;69.70;;;;;;5019155;28;20041;-71
2022/08/18 10:23:59;;;;;;;10.27;8.07;;;22.40;69.50;;;;;;5027173;28;20605;-71
2022/08/18 10:26:30;;;;;;;11.70;10.15;;;22.50;69.00;;;;;;5016373;28;20112;-71
2022/08/18 10:28:55;;;;;;;;;;;22.70;68.80;;;;;;5037710;28;20038;-72
2022/08/18 10:31:21;;;;;;;10.45;7.82;;;22.70;68.60;;;;;;5039846;28;20316;-70
2022/08/18 10:34:05;;;;;;;15.80;8.75;;;22.80;68.10;;;;;;5024128;28;20078;-73
2022/08/18 10:36:58;;;;;;;10.93;6.97;;;22.90;68.10;;;;;;5019911;28;20052;-72
2022/08/18 10:39:41;;;;;;;15.93;9.77;;;23.00;67.70;;;;;;5007334;28;20037;-72
2022/08/18 10:42:13;;;;;;;8.82;7.97;;;23.10;67.60;;;;;;5005227;28;20180;-71
2022/08/18 10:44:42;;;;;;;9.85;8.38;;;23.20;67.30;;;;;;5023396;28;20064;-72
2022/08/18 10:47:07;;;;;;;9.00;8.02;;;23.30;67.10;;;;;;5023263;28;20201;-71
2022/08/18 10:49:35;;;;;;;12.27;9.48;;;23.30;66.90;;;;;;5006789;28;20544;-73
2022/08/18 10:52:20;;;;;;;12.25;8.43;;;23.40;66.80;;;;;;5010613;28;20033;-72
2022/08/18 10:55:10;;;;;;;13.82;10.25;;;23.50;66.90;;;;;;5006034;28;20033;-73
2022/08/18 10:58:01;;;;;;;13.00;10.05;;;23.60;66.60;;;;;;5038927;28;20444;-74
2022/08/18 11:00:50;;;;;;;11.15;9.30;;;23.90;66.30;;;;;;5018554;28;20029;-74
2022/08/18 11:03:30;;;;;;;15.27;11.00;;;24.00;66.10;;;;;;5026046;28;20305;-76
2022/08/18 11:06:07;;;;;;;17.60;9.68;;;24.20;65.70;;;;;;5021223;28;20029;-73
2022/08/18 11:08:36;;;;;;;18.23;11.93;;;24.50;65.60;;;;;;5000122;28;20120;-74
2022/08/18 11:11:06;;;;;;;10.70;9.15;;;24.70;65.20;;;;;;5021692;28;20159;-74
2022/08/18 11:13:35;;;;;;;15.27;12.70;;;25.00;64.60;;;;;;5023105;28;20033;-71
2022/08/18 11:16:11;;;;;;;10.68;9.25;;;25.20;64.30;;;;;;5023002;28;20303;-73
2022/08/18 11:18:45;;;;;;;12.70;10.30;;;25.40;63.80;;;;;;5039037;28;20521;-71
2022/08/18 11:21:24;;;;;;;15.45;12.05;;;25.60;63.20;;;;;;5038290;28;20137;-73
2022/08/18 11:24:22;;;;;;;17.80;10.38;;;25.80;62.80;;;;;;5020903;28;20040;-73
2022/08/18 11:26:50;;;;;;;13.45;9.52;;;26.10;62.30;;;;;;5018574;28;20047;-69
2022/08/18 11:29:31;;;;;;;11.45;8.68;;;26.40;62.20;;;;;;5024050;28;20033;-71
2022/08/18 11:32:04;;;;;;;11.27;7.72;;;26.70;61.40;;;;;;5037971;28;20413;-73
2022/08/18 11:34:47;;;;;;;12.57;9.02;;;27.00;60.90;;;;;;5005080;28;20729;-71
2022/08/18 11:37:37;;;;;;;12.48;10.35;;;27.20;59.90;;;;;;5039636;28;20394;-71
2022/08/18 11:40:05;;;;;;;11.77;10.43;;;27.30;59.40;;;;;;5024455;28;20086;-71
2022/08/18 11:42:32;;;;;;;10.57;8.05;;;27.50;59.50;;;;;;5017857;28;20160;-71
2022/08/18 11:45:12;;;;;;;11.73;8.75;;;27.60;59.00;;;;;;5007052;28;20058;-70
2022/08/18 11:47:47;;;;;;;10.40;8.65;;;27.60;58.30;;;;;;5019885;28;20025;-70
2022/08/18 11:50:12;;;;;;;9.77;8.80;;;27.60;58.40;;;;;;4996265;28;20040;-72
2022/08/18 11:52:51;;;;;;;11.85;8.10;;;27.60;58.10;;;;;;5023037;28;20026;-71
2022/08/18 11:55:26;;;;;;;10.63;7.57;;;27.60;57.70;;;;;;5023408;28;20118;-73
2022/08/18 11:57:53;;;;;;;12.15;8.00;;;27.60;57.80;;;;;;5022481;28;20041;-71
2022/08/18 12:00:37;;;;;;;9.98;8.95;;;27.60;57.70;;;;;;5036695;28;20033;-73
2022/08/18 12:03:18;;;;;;;16.27;8.38;;;27.70;57.20;;;;;;5039237;28;20025;-73
2022/08/18 12:05:46;;;;;;;8.95;8.00;;;27.60;57.40;;;;;;5036793;28;20649;-75
2022/08/18 12:08:17;;;;;;;8.52;7.15;;;27.60;57.40;;;;;;5005236;28;20569;-73
2022/08/18 12:10:43;;;;;;;10.07;8.45;;;27.50;57.20;;;;;;5009496;28;20045;-74
2022/08/18 12:13:08;;;;;;;10.38;7.22;;;27.60;57.30;;;;;;5023464;28;20159;-74
2022/08/18 12:15:34;;;;;;;11.25;9.13;;;27.60;57.10;;;;;;5008631;28;20041;-74
2022/08/18 12:17:59;;;;;;;8.27;7.47;;;27.60;57.00;;;;;;5008089;28;20037;-73
2022/08/18 12:20:25;;;;;;;11.05;7.75;;;27.70;56.90;;;;;;5039073;28;20048;-75
2022/08/18 12:22:52;;;;;;;11.05;8.15;;;27.70;56.80;;;;;;5007633;28;20044;-74
2022/08/18 12:25:19;;;;;;;12.55;7.97;;;27.80;56.60;;;;;;5005927;28;20109;-72
2022/08/18 12:27:44;;;;;;;9.63;7.80;;;27.90;56.40;;;;;;5003756;28;20036;-72
2022/08/18 12:30:11;;;;;;;9.00;7.40;;;28.00;56.20;;;;;;5020436;28;20394;-72
2022/08/18 12:32:37;;;;;;;8.15;7.32;;;28.10;55.90;;;;;;5007574;28;20029;-75
2022/08/18 12:35:04;;;;;;;12.10;7.22;;;28.20;55.80;;;;;;5007840;28;20036;-75
2022/08/18 12:37:30;;;;;;;8.25;6.53;;;28.40;55.60;;;;;;5008007;28;20072;-74
2022/08/18 12:39:56;;;;;;;7.28;6.63;;;28.60;55.30;;;;;;5022503;28;20049;-74
2022/08/18 12:42:22;;;;;;;7.50;5.80;;;28.70;54.80;;;;;;5024941;28;20033;-75
2022/08/18 12:44:47;;;;;;;7.07;6.40;;;28.90;54.60;;;;;;5007362;28;20250;-72
2022/08/18 12:47:21;;;;;;;8.50;6.35;;;29.10;54.30;;;;;;5005855;28;20564;-71
2022/08/18 12:49:47;;;;;;;6.32;5.72;;;29.30;53.90;;;;;;5009350;28;20025;-72
2022/08/18 12:52:12;;;;;;;7.45;5.40;;;29.50;53.60;;;;;;5006488;28;20078;-72
2022/08/18 12:54:38;;;;;;;6.10;5.50;;;29.70;53.10;;;;;;5005322;28;20067;-72
2022/08/18 12:57:05;;;;;;;6.30;5.70;;;30.00;52.80;;;;;;5021391;28;20584;-72
2022/08/18 12:59:31;;;;;;;7.03;5.47;;;30.20;52.30;;;;;;4988748;28;20032;-72
2022/08/18 13:01:58;;;;;;;5.88;5.28;;;30.30;52.00;;;;;;5010319;28;20540;-73
2022/08/18 13:04:23;;;;;;;9.38;5.03;;;30.50;51.70;;;;;;5015796;28;20046;-75
2022/08/18 13:06:52;;;;;;;9.70;5.60;;;30.50;51.40;;;;;;5026149;28;20049;-73
2022/08/18 13:09:17;;;;;;;6.53;5.93;;;30.60;51.10;;;;;;5003332;28;20037;-74
2022/08/18 13:11:43;;;;;;;8.10;5.25;;;30.70;50.80;;;;;;5019550;28;20037;-72
2022/08/18 13:14:08;;;;;;;6.63;5.25;;;30.80;50.60;;;;;;5039428;28;20071;-74
2022/08/18 13:16:35;;;;;;;5.82;4.93;;;30.90;50.30;;;;;;5019381;28;20044;-73
2022/08/18 13:19:00;;;;;;;5.43;4.93;;;31.00;50.10;;;;;;5007096;28;20029;-73
2022/08/18 13:21:26;;;;;;;5.85;5.00;;;31.20;49.90;;;;;;5036099;28;20045;-72